createdAt,value
2023-01-17T00:00:43.959Z,56.03
2023-01-17T00:03:10.498Z,71.90
2023-01-17T00:05:40.225Z,67.00
2023-01-17T00:08:11.479Z,58.33
2023-01-17T00:10:39.348Z,61.00
2023-01-17T00:13:06.277Z,57.40
2023-01-17T00:15:39.357Z,63.85
2023-01-17T00:18:10.709Z,62.85
2023-01-17T00:20:37.838Z,61.08
2023-01-17T00:23:08.364Z,67.53
2023-01-17T00:25:38.914Z,64.35
2023-01-17T00:28:06.321Z,59.60
2023-01-17T00:30:33.409Z,62.08
2023-01-17T00:33:03.282Z,64.15
2023-01-17T00:35:31.206Z,59.45
2023-01-17T00:38:08.744Z,59.22
2023-01-17T00:40:37.586Z,59.40
2023-01-17T00:43:04.892Z,61.85
2023-01-17T00:45:31.431Z,56.78
2023-01-17T00:47:58.289Z,58.58
2023-01-17T00:50:24.831Z,61.72
2023-01-17T00:52:51.805Z,59.17
2023-01-17T00:55:18.338Z,68.93
2023-01-17T00:57:44.881Z,62.67
2023-01-17T01:00:11.944Z,57.97
2023-01-17T01:02:41.223Z,68.13
2023-01-17T01:05:10.067Z,61.28
2023-01-17T01:07:40.391Z,63.05
2023-01-17T01:10:07.320Z,64.88
2023-01-17T01:12:36.295Z,68.68
2023-01-17T01:15:07.733Z,62.58
2023-01-17T01:17:34.296Z,66.78
2023-01-17T01:20:01.132Z,66.78
2023-01-17T01:22:27.942Z,62.90
2023-01-17T01:24:54.540Z,62.20
2023-01-17T01:27:21.124Z,55.42
2023-01-17T01:29:47.685Z,62.40
2023-01-17T01:32:14.240Z,59.85
2023-01-17T01:34:41.072Z,58.33
2023-01-17T01:37:07.733Z,63.30
2023-01-17T01:39:37.098Z,58.83
2023-01-17T01:42:03.720Z,62.40
2023-01-17T01:44:51.662Z,60.67
2023-01-17T01:47:40.433Z,53.63
2023-01-17T01:50:08.294Z,61.00
2023-01-17T01:52:39.370Z,58.50
2023-01-17T01:55:08.637Z,60.15
2023-01-17T01:57:37.925Z,54.97
2023-01-17T02:00:07.905Z,59.58
2023-01-17T02:02:34.818Z,59.05
2023-01-17T02:05:04.606Z,60.72
2023-01-17T02:07:41.579Z,61.20
2023-01-17T02:10:21.129Z,59.17
2023-01-17T02:12:48.170Z,60.45
2023-01-17T02:15:19.729Z,59.90
2023-01-17T02:18:11.343Z,63.35
2023-01-17T02:20:56.932Z,60.88
2023-01-17T02:23:51.430Z,57.28
2023-01-17T02:26:24.891Z,72.65
2023-01-17T02:28:59.499Z,67.82
2023-01-17T02:34:02.547Z,63.45
2023-01-17T02:36:40.432Z,63.38
2023-01-17T02:39:11.029Z,67.63
2023-01-17T02:41:40.450Z,68.18
2023-01-17T02:44:10.814Z,65.57
2023-01-17T02:46:50.431Z,59.83
2023-01-17T02:49:18.147Z,68.85
2023-01-17T02:54:27.272Z,54.90
2023-01-17T02:57:01.255Z,66.20
2023-01-17T02:59:30.779Z,61.80
2023-01-17T03:01:57.352Z,61.33
2023-01-17T03:04:55.468Z,59.33
2023-01-17T03:07:25.124Z,64.65
2023-01-17T03:09:57.301Z,65.72
2023-01-17T03:12:26.575Z,63.28
2023-01-17T03:14:53.214Z,61.45
2023-01-17T03:17:20.099Z,66.65
2023-01-17T03:19:46.636Z,63.22
2023-01-17T03:22:17.324Z,61.42
2023-01-17T03:24:43.733Z,60.03
2023-01-17T03:27:18.500Z,60.30
2023-01-17T03:29:45.747Z,67.60
2023-01-17T03:32:12.206Z,59.30
2023-01-17T03:34:38.664Z,60.00
2023-01-17T03:37:05.247Z,61.17
2023-01-17T03:39:31.764Z,58.83
2023-01-17T03:41:58.195Z,63.13
2023-01-17T03:44:24.884Z,60.30
2023-01-17T03:49:22.727Z,62.63
2023-01-17T03:51:54.946Z,62.15
2023-01-17T03:54:21.461Z,53.95
2023-01-17T03:56:52.386Z,66.10
2023-01-17T04:02:03.052Z,61.85
2023-01-17T04:04:35.099Z,66.93
2023-01-17T04:07:02.590Z,62.00
2023-01-17T04:09:29.513Z,63.95
2023-01-17T04:12:01.485Z,62.70
2023-01-17T04:14:37.773Z,57.08
2023-01-17T04:17:04.263Z,59.28
2023-01-17T04:22:06.098Z,63.22
2023-01-17T04:24:32.558Z,61.42
2023-01-17T04:27:02.606Z,67.65
2023-01-17T04:29:29.066Z,68.63
2023-01-17T04:31:55.536Z,62.33
2023-01-17T04:34:25.365Z,64.00
2023-01-17T04:36:55.703Z,61.78
2023-01-17T04:39:22.534Z,55.10
2023-01-17T04:41:56.391Z,58.00
2023-01-17T04:46:54.609Z,63.50
2023-01-17T04:49:27.424Z,56.30
2023-01-17T04:51:54.057Z,60.42
2023-01-17T04:54:38.390Z,66.13
2023-01-17T04:57:10.837Z,55.20
2023-01-17T04:59:37.769Z,59.53
2023-01-17T05:02:05.604Z,58.58
2023-01-17T05:04:32.055Z,64.63
2023-01-17T05:07:05.231Z,65.88
2023-01-17T05:09:32.794Z,61.28
2023-01-17T05:12:11.006Z,59.33
2023-01-17T05:14:41.139Z,58.58
2023-01-17T05:17:08.565Z,65.63
2023-01-17T05:19:39.224Z,65.63
2023-01-17T05:22:11.426Z,67.75
2023-01-17T05:24:47.486Z,64.72
2023-01-17T05:27:26.750Z,60.42
2023-01-17T05:32:37.257Z,63.03
2023-01-17T05:35:07.158Z,60.10
2023-01-17T05:37:34.803Z,66.82
2023-01-17T05:40:01.233Z,56.72
2023-01-17T05:42:27.745Z,64.35
2023-01-17T05:44:55.855Z,56.60
2023-01-17T05:47:29.266Z,61.75
2023-01-17T05:50:02.710Z,71.13
2023-01-17T05:52:29.266Z,65.70
2023-01-17T05:54:59.578Z,65.20
2023-01-17T05:57:29.364Z,64.75
2023-01-17T05:59:55.826Z,63.55
2023-01-17T06:02:28.035Z,64.25
2023-01-17T06:04:55.671Z,68.75
2023-01-17T06:07:22.085Z,60.15
2023-01-17T06:09:48.640Z,60.47
2023-01-17T06:12:27.378Z,59.25
2023-01-17T06:14:54.633Z,63.45
2023-01-17T06:17:27.588Z,66.72
2023-01-17T06:19:54.671Z,66.28
2023-01-17T06:22:43.544Z,63.53
2023-01-17T06:30:30.869Z,69.45
2023-01-17T06:33:02.417Z,69.75
2023-01-17T06:35:30.650Z,74.00
2023-01-17T06:37:57.310Z,67.47
2023-01-17T06:40:24.440Z,67.88
2023-01-17T06:42:51.201Z,74.82
2023-01-17T06:45:17.756Z,70.25
2023-01-17T06:50:15.904Z,60.85
2023-01-17T06:52:42.628Z,69.68
2023-01-17T06:55:09.800Z,61.78
2023-01-17T07:02:43.659Z,71.25
2023-01-17T07:10:16.843Z,68.97
2023-01-17T07:12:43.289Z,76.88
2023-01-17T07:15:10.172Z,65.28
2023-01-17T07:17:42.653Z,70.28
2023-01-17T07:22:44.330Z,75.53
2023-01-17T07:25:11.641Z,75.13
2023-01-17T07:27:42.581Z,72.70
2023-01-17T07:30:19.615Z,73.78
2023-01-17T07:32:56.382Z,79.07
2023-01-17T07:35:27.832Z,73.50
2023-01-17T07:37:54.778Z,72.43
2023-01-17T07:40:23.678Z,72.90
2023-01-17T07:42:50.087Z,66.03
2023-01-17T07:47:52.680Z,89.00
2023-01-17T07:50:25.299Z,92.05
2023-01-17T07:53:02.992Z,84.13
2023-01-17T07:55:29.443Z,73.97
2023-01-17T07:58:03.140Z,76.35
2023-01-17T08:00:30.767Z,86.45
2023-01-17T08:03:07.105Z,84.47
2023-01-17T08:05:37.732Z,72.75
2023-01-17T08:08:10.872Z,80.20
2023-01-17T08:10:40.869Z,85.00
2023-01-17T08:13:07.355Z,87.43
2023-01-17T08:15:37.599Z,107.63
2023-01-17T08:18:04.822Z,83.07
2023-01-17T08:20:31.226Z,81.00
2023-01-17T08:22:57.839Z,109.32
2023-01-17T08:25:24.915Z,105.90
2023-01-17T08:27:56.751Z,88.35
2023-01-17T08:30:23.185Z,89.93
2023-01-17T08:35:28.586Z,79.07
2023-01-17T08:37:55.672Z,83.18
2023-01-17T08:40:22.488Z,82.63
2023-01-17T08:43:04.826Z,86.03
2023-01-17T08:45:31.316Z,93.45
2023-01-17T08:47:58.256Z,89.43
2023-01-17T08:50:24.912Z,101.40
2023-01-17T08:52:51.687Z,96.88
2023-01-17T08:55:18.148Z,105.03
2023-01-17T08:57:57.219Z,88.13
2023-01-17T09:00:29.771Z,95.07
2023-01-17T09:03:06.461Z,89.28
2023-01-17T09:05:32.891Z,96.90
2023-01-17T09:08:07.179Z,97.85
2023-01-17T09:10:33.731Z,85.57
2023-01-17T09:13:00.197Z,69.50
2023-01-17T09:15:30.016Z,80.10
2023-01-17T09:17:59.656Z,90.38
2023-01-17T09:20:26.111Z,92.03
2023-01-17T09:22:52.541Z,104.97
2023-01-17T09:25:23.811Z,108.65
2023-01-17T09:27:51.054Z,103.57
2023-01-17T09:30:17.736Z,117.82
2023-01-17T09:32:44.762Z,130.70
2023-01-17T09:35:11.791Z,114.78
2023-01-17T09:37:38.310Z,129.38
2023-01-17T09:40:05.093Z,126.03
2023-01-17T09:42:36.474Z,125.65
2023-01-17T09:45:03.155Z,112.35
2023-01-17T09:48:18.073Z,110.40
2023-01-17T09:50:47.976Z,107.43
2023-01-17T09:53:20.067Z,98.47
2023-01-17T09:56:08.781Z,113.72
2023-01-17T09:58:47.424Z,103.18
2023-01-17T10:01:37.017Z,92.97
2023-01-17T10:04:09.819Z,84.40
2023-01-17T10:06:45.382Z,88.18
2023-01-17T10:09:21.217Z,75.28
2023-01-17T10:12:00.704Z,73.80
2023-01-17T10:14:39.248Z,79.88
2023-01-17T10:19:54.884Z,76.32
2023-01-17T10:22:37.585Z,87.28
2023-01-17T10:25:19.599Z,83.65
2023-01-17T10:27:56.990Z,60.65
2023-01-17T10:30:26.841Z,62.55
2023-01-17T10:32:54.409Z,59.53
2023-01-17T10:35:35.874Z,62.47
2023-01-17T10:38:08.959Z,62.88
2023-01-17T10:40:45.233Z,55.50
2023-01-17T10:43:19.112Z,56.63
2023-01-17T10:45:56.276Z,52.78
2023-01-17T10:48:25.808Z,55.08
2023-01-17T10:51:07.714Z,52.55
2023-01-17T10:54:00.034Z,47.63
2023-01-17T10:56:30.813Z,47.55
2023-01-17T10:59:09.386Z,50.40
2023-01-17T11:04:13.741Z,52.95
2023-01-17T11:06:57.095Z,45.92
2023-01-17T11:09:42.366Z,45.22
2023-01-17T11:12:19.666Z,39.45
2023-01-17T11:14:55.931Z,40.35
2023-01-17T11:17:27.479Z,43.65
2023-01-17T11:19:54.574Z,42.13
2023-01-17T11:22:21.035Z,46.03
2023-01-17T11:24:49.553Z,52.25
2023-01-17T11:27:26.010Z,50.72
2023-01-17T11:30:10.735Z,50.58
2023-01-17T11:32:49.473Z,49.15
2023-01-17T11:35:22.151Z,53.72
2023-01-17T11:38:02.633Z,55.30
2023-01-17T11:40:33.803Z,60.53
2023-01-17T11:43:09.159Z,49.97
2023-01-17T11:45:36.847Z,58.33
2023-01-17T11:48:08.432Z,51.17
2023-01-17T11:50:35.991Z,53.75
2023-01-17T11:53:25.687Z,56.55
2023-01-17T11:55:56.818Z,60.67
2023-01-17T11:58:23.481Z,60.15
2023-01-17T12:01:09.802Z,59.45
2023-01-17T12:03:49.089Z,54.55
2023-01-17T12:06:18.813Z,54.40
2023-01-17T12:09:08.954Z,56.53
2023-01-17T12:11:46.260Z,49.83
2023-01-17T12:14:25.741Z,55.13
2023-01-17T12:16:53.878Z,48.15
2023-01-17T12:19:38.904Z,45.60
2023-01-17T12:22:50.998Z,51.28
2023-01-17T12:25:53.377Z,48.90
2023-01-17T12:28:26.820Z,48.97
2023-01-17T12:31:12.112Z,55.38
2023-01-17T12:33:53.071Z,47.70
2023-01-17T12:36:34.441Z,42.90
2023-01-17T12:39:05.098Z,37.42
2023-01-17T12:41:34.601Z,34.17
2023-01-17T12:46:35.889Z,34.03
2023-01-17T12:49:22.145Z,33.33
2023-01-17T12:51:52.823Z,26.60
2023-01-17T12:54:42.790Z,26.30
2023-01-17T12:57:14.112Z,27.45
2023-01-17T12:59:41.929Z,31.10
2023-01-17T13:02:29.811Z,18.45
2023-01-17T13:05:15.407Z,19.85
2023-01-17T13:07:53.482Z,22.73
2023-01-17T13:10:25.697Z,19.58
2023-01-17T13:12:53.753Z,17.65
2023-01-17T13:15:23.104Z,15.68
2023-01-17T13:18:07.037Z,13.63
2023-01-17T13:20:36.844Z,12.85
2023-01-17T13:23:22.529Z,15.55
2023-01-17T13:25:50.262Z,15.55
2023-01-17T13:28:30.143Z,18.67
2023-01-17T13:30:57.076Z,12.73
2023-01-17T13:33:23.478Z,15.90
2023-01-17T13:36:13.988Z,12.55
2023-01-17T13:38:40.487Z,11.60
2023-01-17T13:41:12.702Z,14.45
2023-01-17T13:43:40.430Z,15.18
2023-01-17T13:46:07.173Z,13.50
2023-01-17T13:48:47.510Z,12.43
2023-01-17T13:51:14.104Z,11.85
2023-01-17T13:53:46.078Z,12.18
2023-01-17T13:56:12.795Z,10.88
2023-01-17T13:58:45.488Z,12.75
2023-01-17T14:01:12.333Z,19.33
2023-01-17T14:03:51.985Z,15.68
2023-01-17T14:06:31.982Z,14.70
2023-01-17T14:09:16.635Z,13.68
2023-01-17T14:11:53.347Z,14.63
2023-01-17T14:14:35.813Z,12.52
2023-01-17T14:17:20.371Z,13.75
2023-01-17T14:19:48.525Z,11.23
2023-01-17T14:22:22.406Z,11.65
2023-01-17T14:25:07.372Z,14.02
2023-01-17T14:27:34.642Z,32.00
2023-01-17T14:30:05.020Z,8.20
2023-01-17T14:32:40.887Z,15.00
2023-01-17T14:35:21.581Z,9.38
2023-01-17T14:40:25.852Z,33.28
2023-01-17T14:42:58.488Z,10.38
2023-01-17T14:45:28.018Z,10.23
2023-01-17T14:47:56.047Z,11.20
2023-01-17T14:50:24.992Z,8.75
2023-01-17T14:53:09.966Z,10.05
2023-01-17T14:58:02.714Z,10.82
2023-01-17T15:00:40.125Z,11.15
2023-01-17T15:03:10.658Z,10.18
2023-01-17T15:05:41.207Z,9.48
2023-01-17T15:08:11.726Z,12.00
2023-01-17T15:10:59.083Z,11.85
2023-01-17T15:13:46.096Z,11.57
2023-01-17T15:16:20.422Z,10.70
2023-01-17T15:18:47.974Z,11.73
2023-01-17T15:21:21.981Z,13.10
2023-01-17T15:23:53.060Z,13.65
2023-01-17T15:26:20.895Z,12.98
2023-01-17T15:28:56.390Z,12.60
2023-01-17T15:31:24.595Z,14.02
2023-01-17T15:33:57.302Z,13.57
2023-01-17T15:36:27.650Z,13.75
2023-01-17T15:38:59.920Z,13.90
2023-01-17T15:41:29.330Z,15.05
2023-01-17T15:43:55.758Z,16.10
2023-01-17T15:46:25.920Z,18.13
2023-01-17T15:48:52.510Z,18.15
2023-01-17T15:51:33.036Z,21.30
2023-01-17T15:53:59.453Z,20.63
2023-01-17T15:56:38.952Z,19.33
2023-01-17T15:59:23.062Z,19.50
2023-01-17T16:01:58.149Z,23.67
2023-01-17T16:04:34.027Z,20.10
2023-01-17T16:07:32.001Z,23.70
2023-01-17T16:10:02.413Z,21.92
2023-01-17T16:12:28.866Z,20.63
2023-01-17T16:15:11.188Z,21.73
2023-01-17T16:17:39.339Z,21.13
2023-01-17T16:22:49.379Z,22.58
2023-01-17T16:25:17.771Z,20.05
2023-01-17T16:27:57.635Z,23.80
2023-01-17T16:30:25.110Z,20.85
2023-01-17T16:32:51.860Z,21.73
2023-01-17T16:35:21.930Z,17.58
2023-01-17T16:37:57.030Z,19.27
2023-01-17T16:40:26.100Z,20.95
2023-01-17T16:42:52.604Z,20.00
2023-01-17T16:45:35.036Z,20.95
2023-01-17T16:48:07.654Z,22.05
2023-01-17T16:50:36.114Z,19.42
2023-01-17T16:53:06.295Z,16.58
2023-01-17T16:55:32.716Z,16.35
2023-01-17T16:58:03.086Z,18.88
2023-01-17T17:00:34.823Z,20.27
2023-01-17T17:03:02.192Z,19.52
2023-01-17T17:08:20.150Z,22.48
2023-01-17T17:10:53.166Z,23.83
2023-01-17T17:13:23.068Z,20.23
2023-01-17T17:18:22.060Z,21.27
2023-01-17T17:20:48.501Z,22.95
2023-01-17T17:23:14.929Z,21.35
2023-01-17T17:25:41.369Z,23.27
2023-01-17T17:28:07.807Z,23.85
2023-01-17T17:30:36.176Z,23.85
2023-01-17T17:33:17.835Z,24.63
2023-01-17T17:35:44.323Z,25.40
2023-01-17T17:38:13.570Z,23.92
2023-01-17T17:40:43.094Z,21.58
2023-01-17T17:43:09.506Z,21.55
2023-01-17T17:45:36.034Z,23.52
2023-01-17T17:48:08.759Z,22.60
2023-01-17T17:50:35.592Z,24.48
2023-01-17T17:53:01.990Z,21.00
2023-01-17T17:55:28.451Z,20.85
2023-01-17T17:57:55.087Z,24.58
2023-01-17T18:00:27.984Z,23.75
2023-01-17T18:02:54.421Z,19.63
2023-01-17T18:05:21.192Z,21.58
2023-01-17T18:10:28.335Z,27.23
2023-01-17T18:13:00.216Z,22.48
2023-01-17T18:15:26.834Z,24.23
2023-01-17T18:17:57.161Z,27.13
2023-01-17T18:20:36.606Z,26.33
2023-01-17T18:23:03.017Z,23.63
2023-01-17T18:25:29.384Z,23.58
2023-01-17T18:27:55.989Z,24.65
2023-01-17T18:30:22.581Z,24.08
2023-01-17T18:32:52.357Z,27.15
2023-01-17T18:35:18.791Z,26.05
2023-01-17T18:37:45.235Z,25.33
2023-01-17T18:40:11.665Z,24.48
2023-01-17T18:42:49.155Z,24.35
2023-01-17T18:45:15.636Z,23.70
2023-01-17T18:47:42.069Z,24.20
2023-01-17T18:50:08.797Z,27.27
2023-01-17T18:52:50.025Z,24.95
2023-01-17T18:55:17.139Z,25.20
2023-01-17T18:57:44.187Z,23.65
2023-01-17T19:00:10.862Z,25.95
2023-01-17T19:02:37.248Z,24.05
2023-01-17T19:05:06.701Z,27.00
2023-01-17T19:07:40.938Z,23.95
2023-01-17T19:10:15.287Z,26.27
2023-01-17T19:12:41.757Z,27.67
2023-01-17T19:15:15.905Z,27.38
2023-01-17T19:17:47.561Z,27.90
2023-01-17T19:20:14.003Z,25.30
2023-01-17T19:22:40.428Z,26.20
2023-01-17T19:25:13.295Z,26.92
2023-01-17T19:27:39.808Z,39.47
2023-01-17T19:30:06.643Z,26.75
2023-01-17T19:32:33.178Z,26.90
2023-01-17T19:34:59.605Z,27.60
2023-01-17T19:37:31.556Z,28.45
2023-01-17T19:40:03.782Z,27.48
2023-01-17T19:42:36.532Z,27.15
2023-01-17T19:45:03.209Z,25.70
2023-01-17T19:47:29.742Z,25.35
2023-01-17T19:49:57.230Z,24.63
2023-01-17T19:52:29.412Z,22.55
2023-01-17T19:54:56.303Z,24.30
2023-01-17T19:57:22.716Z,25.83
2023-01-17T19:59:49.202Z,26.50
2023-01-17T20:02:16.069Z,23.13
2023-01-17T20:04:46.032Z,24.45
2023-01-17T20:07:19.016Z,26.33
2023-01-17T20:09:45.539Z,27.38
2023-01-17T20:12:15.927Z,24.58
2023-01-17T20:14:42.429Z,25.38
2023-01-17T20:17:08.883Z,26.23
2023-01-17T20:19:42.526Z,25.45
2023-01-17T20:22:10.510Z,26.40
2023-01-17T20:24:38.308Z,25.13
2023-01-17T20:27:04.825Z,32.78
2023-01-17T20:29:31.939Z,24.60
2023-01-17T20:31:58.812Z,26.65
2023-01-17T20:34:36.585Z,27.38
2023-01-17T20:37:04.250Z,26.42
2023-01-17T20:39:30.924Z,26.48
2023-01-17T20:41:57.457Z,25.75
2023-01-17T20:44:26.606Z,39.03
2023-01-17T20:49:49.332Z,28.85
2023-01-17T20:52:17.293Z,27.02
2023-01-17T20:54:43.677Z,29.27
2023-01-17T20:57:17.811Z,30.00
2023-01-17T20:59:53.286Z,32.70
2023-01-17T21:02:27.988Z,25.67
2023-01-17T21:04:57.137Z,30.08
2023-01-17T21:07:23.572Z,32.70
2023-01-17T21:09:50.026Z,31.08
2023-01-17T21:12:16.534Z,30.33
2023-01-17T21:14:43.032Z,32.85
2023-01-17T21:17:19.986Z,32.05
2023-01-17T21:19:46.376Z,37.83
2023-01-17T21:22:12.830Z,35.75
2023-01-17T21:24:42.299Z,35.03
2023-01-17T21:27:15.727Z,34.63
2023-01-17T21:29:42.198Z,32.60
2023-01-17T21:32:24.387Z,36.45
2023-01-17T21:34:50.786Z,34.55
2023-01-17T21:37:20.271Z,37.90
2023-01-17T21:39:46.720Z,39.17
2023-01-17T21:42:18.675Z,39.72
2023-01-17T21:44:56.157Z,36.28
2023-01-17T21:47:22.620Z,35.78
2023-01-17T21:49:53.938Z,38.25
2023-01-17T21:52:20.486Z,48.15
2023-01-17T21:54:47.484Z,41.78
2023-01-17T21:57:32.952Z,38.05
2023-01-17T21:59:59.560Z,38.17
2023-01-17T22:02:30.438Z,39.92
2023-01-17T22:04:59.834Z,38.88
2023-01-17T22:07:26.353Z,41.10
2023-01-17T22:09:53.288Z,44.33
2023-01-17T22:12:24.644Z,41.38
2023-01-17T22:14:53.220Z,42.33
2023-01-17T22:17:19.644Z,41.85
2023-01-17T22:20:01.475Z,47.53
2023-01-17T22:22:43.144Z,42.58
2023-01-17T22:25:11.416Z,42.85
2023-01-17T22:27:44.334Z,42.53
2023-01-17T22:30:11.228Z,39.88
2023-01-17T22:32:39.500Z,44.83
2023-01-17T22:35:13.495Z,42.40
2023-01-17T22:37:47.237Z,40.33
2023-01-17T22:40:13.734Z,43.75
2023-01-17T22:42:47.682Z,43.03
2023-01-17T22:45:15.361Z,40.22
2023-01-17T22:47:53.678Z,41.78
2023-01-17T22:50:25.848Z,38.30
2023-01-17T22:53:01.214Z,43.40
2023-01-17T22:55:35.168Z,40.38
2023-01-17T22:58:01.571Z,42.67
2023-01-17T23:00:29.282Z,39.80
2023-01-17T23:02:56.277Z,42.33
2023-01-17T23:05:29.298Z,45.63
2023-01-17T23:08:00.226Z,39.20
2023-01-17T23:10:28.388Z,48.95
2023-01-17T23:12:55.640Z,47.33
2023-01-17T23:15:22.246Z,42.05
2023-01-17T23:17:48.792Z,44.00
2023-01-17T23:20:15.355Z,46.47
2023-01-17T23:22:44.114Z,42.97
2023-01-17T23:25:11.884Z,47.17
2023-01-17T23:27:38.291Z,48.30
2023-01-17T23:30:21.508Z,45.35
2023-01-17T23:32:49.274Z,42.53
2023-01-17T23:35:15.925Z,41.60
2023-01-17T23:37:43.946Z,41.25
2023-01-17T23:40:18.077Z,41.17
2023-01-17T23:42:44.606Z,45.92
2023-01-17T23:45:22.271Z,43.92
2023-01-17T23:47:49.600Z,42.50
2023-01-17T23:50:16.262Z,44.70
2023-01-17T23:52:42.646Z,37.03
2023-01-17T23:55:19.737Z,40.17
2023-01-17T23:57:50.514Z,47.55
